Boca Raton, FL (33427)

1:59 PM EST on February 10, 2016 (GMT -0500)
Boca Villas | | Change Station
CLOSE
Current Station
Personal Weather Station
Location: Boca Raton, FL
Elevation: 23 ft
Nearby Weather Stations

Elev 23 ft 26.36 °N, 80.08 °W | Updated 4 minutes ago

Clear
Clear
63.7 °F
Feels Like 63.7 °F
N
0.0
Wind Variable Wind from WSW
Gusts 5.0 mph

Today
High -- | Low -- °F
--% Chance of Precip.
Yesterday
High -- | Low -- °F
Precip. -- in
Pressure 30.19 in
Visibility 10.0 miles
Clouds Few 5500 ft
Scattered Clouds 20000 ft
Mostly Cloudy 25000 ft
Dew Point 38 °F
Humidity 39%
Rainfall 0.00 in
Snow Depth Not available.
6:59 AM 6:09 PM
Waxing Crescent, 6% visible
METAR KPMP 101853Z 00000KT 10SM FEW055 SCT200 BKN250 16/02 A3019 RMK AO2 SLP224 T01610022
Pressure 30.19 in
Visibility 10.0 miles
Clouds Few 5500 ft
Scattered Clouds 20000 ft
Mostly Cloudy 25000 ft
Dew Point 38 °F
Humidity 39%
Rainfall 0.00 in
Snow Depth Not available.
6:59 AM 6:09 PM
Waxing Crescent, 6% visible
METAR KPMP 101853Z 00000KT 10SM FEW055 SCT200 BKN250 16/02 A3019 RMK AO2 SLP224 T01610022

10-Day Weather Forecast

Almanac

Astronomy

Feb. 10, 2016 Rise Set
Actual Time
Civil Twilight
Nautical Twilight
Astronomical Twilight
Moon
Length of Visible Light
Length of Day
Tomorrow will be .
, % of the Moon is Illuminated

Today's Extremes

State Highs State Lows

Community

WunderPhotos

Upload Photos

1,891,915 photos uploaded!

WunderBlog® & News

Nearby

Air Quality

  Air Quality AQ Index Pollutant
Not available.

Snow Depth

Station Depth Elevation

Earthquake Activity

City Distance Mag. Time & Date
Minimum magnitude displayed is 2.5.

Coastal Water Temperatures

Place Temperature

Stations

Nearby Weather Stations

Station Location Temp. Windchill Dew Point Humidity Wind Precip. Elev Updated Type
                   

Watches & Warnings

There are currently no watches in effect.